QFA23PX YSSY-YBCG
Flight info
| Callsign | QFA23PX |
|---|---|
| Flight time | 1h 7m |
| Altitude | 33000 |
| Route | TESAT H252 OLSEM Y193 BANDA Y43 GREAV DCT GOMOL |
| Aircraft | B738/M-SDE2E3FGHIRWXY/LB1 |
Departure
| Time | 2026-05-06 13:11 |
|---|---|
| Airport | Sydney Kingsford Smith International Airport (YSSY) |
Arrival
| Time | 2026-05-06 14:19 |
|---|---|
| Airport | Gold Coast Airport (YBCG) |
| Time | Latitude | Longitude | Altitude | Speed | Heading |
|---|---|---|---|---|---|
| 2026-05-06 12:35 | -33.93303 | 151.17693 | 29 ft | 0 kts | 90° |
| 2026-05-06 12:51 | -33.93303 | 151.17681 | 29 ft | 4 kts | 90° |
| 2026-05-06 12:52 | -33.93303 | 151.17649 | 29 ft | 4 kts | 88° |
| 2026-05-06 12:52 | -33.93304 | 151.17616 | 29 ft | 4 kts | 91° |
| 2026-05-06 12:52 | -33.93301 | 151.17585 | 29 ft | 4 kts | 114° |
| 2026-05-06 12:52 | -33.93291 | 151.17569 | 29 ft | 0 kts | 166° |
| 2026-05-06 12:56 | -33.93311 | 151.17574 | 29 ft | 4 kts | 168° |
| 2026-05-06 12:56 | -33.93336 | 151.17580 | 29 ft | 4 kts | 168° |
| 2026-05-06 12:56 | -33.93369 | 151.17588 | 29 ft | 6 kts | 169° |
| 2026-05-06 12:56 | -33.93415 | 151.17593 | 29 ft | 7 kts | 188° |
| 2026-05-06 12:57 | -33.93460 | 151.17583 | 29 ft | 7 kts | 184° |
| 2026-05-06 12:57 | -33.93505 | 151.17590 | 29 ft | 6 kts | 169° |
| 2026-05-06 12:57 | -33.93550 | 151.17601 | 29 ft | 7 kts | 169° |
| 2026-05-06 12:57 | -33.93599 | 151.17614 | 29 ft | 8 kts | 163° |
| 2026-05-06 12:58 | -33.93657 | 151.17643 | 29 ft | 10 kts | 154° |
| 2026-05-06 12:58 | -33.93720 | 151.17676 | 29 ft | 10 kts | 165° |
| 2026-05-06 12:58 | -33.93792 | 151.17699 | 29 ft | 11 kts | 165° |
| 2026-05-06 12:58 | -33.93855 | 151.17747 | 29 ft | 11 kts | 131° |
| 2026-05-06 12:59 | -33.93909 | 151.17781 | 28 ft | 7 kts | 167° |
| 2026-05-06 12:59 | -33.93935 | 151.17788 | 28 ft | 0 kts | 168° |
| 2026-05-06 13:00 | -33.93955 | 151.17793 | 28 ft | 8 kts | 168° |
| 2026-05-06 13:00 | -33.94040 | 151.17814 | 28 ft | 17 kts | 168° |
| 2026-05-06 13:00 | -33.94175 | 151.17851 | 29 ft | 22 kts | 167° |
| 2026-05-06 13:00 | -33.94320 | 151.17888 | 29 ft | 21 kts | 168° |
| 2026-05-06 13:01 | -33.94462 | 151.17897 | 29 ft | 20 kts | 198° |
| 2026-05-06 13:01 | -33.94596 | 151.17900 | 28 ft | 19 kts | 167° |
| 2026-05-06 13:01 | -33.94726 | 151.17935 | 29 ft | 19 kts | 169° |
| 2026-05-06 13:01 | -33.94852 | 151.17967 | 29 ft | 18 kts | 168° |
| 2026-05-06 13:02 | -33.94975 | 151.17998 | 29 ft | 18 kts | 168° |
| 2026-05-06 13:02 | -33.95085 | 151.18048 | 29 ft | 17 kts | 128° |
| 2026-05-06 13:02 | -33.95087 | 151.18181 | 29 ft | 15 kts | 77° |
| 2026-05-06 13:02 | -33.95065 | 151.18298 | 29 ft | 12 kts | 78° |
| 2026-05-06 13:03 | -33.95058 | 151.18338 | 29 ft | 0 kts | 78° |
| 2026-05-06 13:03 | -33.95055 | 151.18351 | 29 ft | 3 kts | 78° |
| 2026-05-06 13:03 | -33.95049 | 151.18385 | 29 ft | 6 kts | 78° |
| 2026-05-06 13:04 | -33.95041 | 151.18454 | 29 ft | 11 kts | 95° |
| 2026-05-06 13:04 | -33.95099 | 151.18529 | 29 ft | 14 kts | 144° |
| 2026-05-06 13:04 | -33.95168 | 151.18602 | 29 ft | 13 kts | 137° |
| 2026-05-06 13:04 | -33.95236 | 151.18671 | 29 ft | 13 kts | 144° |
| 2026-05-06 13:05 | -33.95315 | 151.18716 | 29 ft | 13 kts | 164° |
| 2026-05-06 13:05 | -33.95411 | 151.18744 | 29 ft | 16 kts | 166° |
| 2026-05-06 13:05 | -33.95533 | 151.18775 | 29 ft | 20 kts | 168° |
| 2026-05-06 13:05 | -33.95680 | 151.18813 | 29 ft | 23 kts | 167° |
| 2026-05-06 13:06 | -33.95849 | 151.18857 | 29 ft | 26 kts | 168° |
| 2026-05-06 13:06 | -33.96035 | 151.18905 | 29 ft | 29 kts | 168° |
| 2026-05-06 13:06 | -33.96232 | 151.18956 | 29 ft | 28 kts | 168° |
| 2026-05-06 13:06 | -33.96419 | 151.19004 | 29 ft | 27 kts | 167° |
| 2026-05-06 13:07 | -33.96610 | 151.19054 | 29 ft | 27 kts | 168° |
| 2026-05-06 13:07 | -33.96770 | 151.19065 | 29 ft | 24 kts | 187° |
| 2026-05-06 13:07 | -33.96940 | 151.19095 | 29 ft | 26 kts | 168° |
| 2026-05-06 13:07 | -33.97101 | 151.19146 | 29 ft | 18 kts | 147° |
| 2026-05-06 13:08 | -33.97121 | 151.19232 | 28 ft | 13 kts | 76° |
| 2026-05-06 13:08 | -33.97114 | 151.19265 | 28 ft | 0 kts | 76° |
| 2026-05-06 13:09 | -33.97113 | 151.19271 | 27 ft | 3 kts | 76° |
| 2026-05-06 13:09 | -33.97105 | 151.19312 | 28 ft | 7 kts | 76° |
| 2026-05-06 13:10 | -33.97074 | 151.19371 | 29 ft | 10 kts | 14° |
| 2026-05-06 13:10 | -33.97009 | 151.19359 | 25 ft | 9 kts | 347° |
| 2026-05-06 13:10 | -33.96945 | 151.19343 | 25 ft | 9 kts | 348° |
| 2026-05-06 13:10 | -33.96861 | 151.19321 | 23 ft | 17 kts | 347° |
| 2026-05-06 13:11 | -33.96584 | 151.19249 | 23 ft | 79 kts | 348° |
| 2026-05-06 13:11 | -33.95788 | 151.19043 | 26 ft | 153 kts | 348° |
| 2026-05-06 13:11 | -33.94596 | 151.18741 | 402 ft | 188 kts | 352° |
| 2026-05-06 13:11 | -33.93292 | 151.18596 | 1451 ft | 185 kts | 6° |
| 2026-05-06 13:12 | -33.92060 | 151.19031 | 2479 ft | 186 kts | 33° |
| 2026-05-06 13:12 | -33.91338 | 151.20305 | 3272 ft | 193 kts | 80° |
| 2026-05-06 13:12 | -33.91618 | 151.21907 | 3885 ft | 205 kts | 126° |
| 2026-05-06 13:12 | -33.92435 | 151.23326 | 4606 ft | 210 kts | 114° |
| 2026-05-06 13:13 | -33.93010 | 151.24966 | 4976 ft | 214 kts | 114° |
| 2026-05-06 13:13 | -33.93659 | 151.26587 | 4992 ft | 218 kts | 111° |
| 2026-05-06 13:13 | -33.93835 | 151.28443 | 5165 ft | 235 kts | 83° |
| 2026-05-06 13:13 | -33.93712 | 151.30527 | 5380 ft | 264 kts | 86° |
| 2026-05-06 13:14 | -33.93632 | 151.32814 | 5906 ft | 278 kts | 86° |
| 2026-05-06 13:14 | -33.93563 | 151.35153 | 6757 ft | 279 kts | 86° |
| 2026-05-06 13:14 | -33.93493 | 151.37512 | 7485 ft | 286 kts | 86° |
| 2026-05-06 13:14 | -33.93421 | 151.39935 | 8186 ft | 292 kts | 86° |
| 2026-05-06 13:15 | -33.93346 | 151.42393 | 8979 ft | 296 kts | 86° |
| 2026-05-06 13:15 | -33.93269 | 151.44889 | 9742 ft | 301 kts | 86° |
| 2026-05-06 13:15 | -33.93189 | 151.47427 | 10408 ft | 308 kts | 86° |
| 2026-05-06 13:15 | -33.92931 | 151.50071 | 10594 ft | 330 kts | 69° |
| 2026-05-06 13:16 | -33.91720 | 151.52466 | 10781 ft | 346 kts | 42° |
| 2026-05-06 13:16 | -33.89705 | 151.54138 | 10951 ft | 361 kts | 22° |
| 2026-05-06 13:16 | -33.87290 | 151.55090 | 11340 ft | 370 kts | 11° |
| 2026-05-06 13:16 | -33.84752 | 151.55716 | 11910 ft | 375 kts | 8° |
| 2026-05-06 13:17 | -33.82177 | 151.56269 | 12574 ft | 378 kts | 7° |
| 2026-05-06 13:17 | -33.80457 | 151.56643 | 13013 ft | 380 kts | 7° |
| 2026-05-06 13:17 | -33.77848 | 151.57240 | 13650 ft | 384 kts | 8° |
| 2026-05-06 13:17 | -33.75213 | 151.57877 | 14224 ft | 388 kts | 8° |
| 2026-05-06 13:18 | -33.72559 | 151.58539 | 14800 ft | 391 kts | 9° |
| 2026-05-06 13:18 | -33.69008 | 151.59436 | 15552 ft | 396 kts | 9° |
| 2026-05-06 13:18 | -33.67181 | 151.59903 | 15930 ft | 399 kts | 10° |
| 2026-05-06 13:18 | -33.64520 | 151.60936 | 16482 ft | 406 kts | 20° |
| 2026-05-06 13:19 | -33.62011 | 151.62547 | 17029 ft | 413 kts | 30° |
| 2026-05-06 13:19 | -33.59623 | 151.64496 | 17574 ft | 417 kts | 31° |
| 2026-05-06 13:19 | -33.57215 | 151.66472 | 18101 ft | 421 kts | 31° |
| 2026-05-06 13:19 | -33.54772 | 151.68437 | 18590 ft | 424 kts | 31° |
| 2026-05-06 13:20 | -33.52302 | 151.70394 | 19062 ft | 427 kts | 30° |
| 2026-05-06 13:20 | -33.49756 | 151.72218 | 19543 ft | 427 kts | 23° |
| 2026-05-06 13:20 | -33.47008 | 151.73520 | 20054 ft | 424 kts | 12° |
| 2026-05-06 13:20 | -33.44148 | 151.74371 | 20564 ft | 424 kts | 10° |
| 2026-05-06 13:21 | -33.41273 | 151.75218 | 21040 ft | 427 kts | 11° |
| 2026-05-06 13:21 | -33.38386 | 151.76111 | 21473 ft | 430 kts | 11° |
| 2026-05-06 13:21 | -33.35481 | 151.77036 | 21907 ft | 433 kts | 12° |
| 2026-05-06 13:21 | -33.32559 | 151.77978 | 22323 ft | 436 kts | 11° |
| 2026-05-06 13:22 | -33.29626 | 151.78929 | 22758 ft | 438 kts | 11° |
| 2026-05-06 13:22 | -33.26715 | 151.79873 | 23164 ft | 441 kts | 11° |
| 2026-05-06 13:22 | -33.23742 | 151.80835 | 23571 ft | 443 kts | 11° |
| 2026-05-06 13:22 | -33.20759 | 151.81799 | 23918 ft | 446 kts | 11° |
| 2026-05-06 13:23 | -33.17759 | 151.82767 | 24253 ft | 448 kts | 11° |
| 2026-05-06 13:23 | -33.14745 | 151.83738 | 24591 ft | 449 kts | 11° |
| 2026-05-06 13:23 | -33.11719 | 151.84712 | 24915 ft | 451 kts | 10° |
| 2026-05-06 13:23 | -33.08640 | 151.85702 | 25258 ft | 453 kts | 10° |
| 2026-05-06 13:24 | -33.05594 | 151.86681 | 25581 ft | 455 kts | 10° |
| 2026-05-06 13:24 | -33.02574 | 151.87650 | 25888 ft | 456 kts | 9° |
| 2026-05-06 13:24 | -32.99513 | 151.88632 | 26185 ft | 458 kts | 9° |
| 2026-05-06 13:24 | -32.96425 | 151.89621 | 26479 ft | 460 kts | 9° |
| 2026-05-06 13:25 | -32.93326 | 151.90614 | 26772 ft | 462 kts | 9° |
| 2026-05-06 13:25 | -32.90215 | 151.91610 | 27058 ft | 464 kts | 9° |
| 2026-05-06 13:25 | -32.87094 | 151.92608 | 27316 ft | 465 kts | 8° |
| 2026-05-06 13:25 | -32.83963 | 151.93609 | 27589 ft | 467 kts | 8° |
| 2026-05-06 13:26 | -32.80817 | 151.94613 | 27831 ft | 469 kts | 8° |
| 2026-05-06 13:26 | -32.77661 | 151.95621 | 28147 ft | 469 kts | 8° |
| 2026-05-06 13:26 | -32.74513 | 151.96627 | 28557 ft | 468 kts | 8° |
| 2026-05-06 13:26 | -32.71380 | 151.97628 | 28996 ft | 466 kts | 8° |
| 2026-05-06 13:27 | -32.68255 | 151.98625 | 29397 ft | 464 kts | 7° |
| 2026-05-06 13:27 | -32.65135 | 151.99618 | 29761 ft | 464 kts | 7° |
| 2026-05-06 13:27 | -32.62022 | 152.00609 | 30132 ft | 464 kts | 7° |
| 2026-05-06 13:27 | -32.58907 | 152.01599 | 30473 ft | 462 kts | 7° |
| 2026-05-06 13:28 | -32.55810 | 152.02582 | 30817 ft | 461 kts | 7° |
| 2026-05-06 13:28 | -32.52711 | 152.03566 | 31145 ft | 460 kts | 7° |
| 2026-05-06 13:28 | -32.49624 | 152.04545 | 31427 ft | 459 kts | 6° |
| 2026-05-06 13:28 | -32.46540 | 152.05514 | 31724 ft | 458 kts | 6° |
| 2026-05-06 13:29 | -32.43471 | 152.06485 | 32027 ft | 456 kts | 6° |
| 2026-05-06 13:29 | -32.40408 | 152.07463 | 32402 ft | 454 kts | 6° |
| 2026-05-06 13:29 | -32.37356 | 152.08433 | 32682 ft | 454 kts | 6° |
| 2026-05-06 13:29 | -32.34305 | 152.09396 | 32941 ft | 454 kts | 6° |
| 2026-05-06 13:30 | -32.31256 | 152.10357 | 33070 ft | 456 kts | 6° |
| 2026-05-06 13:30 | -32.25130 | 152.12284 | 33054 ft | 454 kts | 6° |
| 2026-05-06 13:31 | -32.19056 | 152.14182 | 33060 ft | 450 kts | 6° |
| 2026-05-06 13:31 | -32.13022 | 152.16089 | 33068 ft | 448 kts | 6° |
| 2026-05-06 13:32 | -32.07005 | 152.17984 | 33073 ft | 447 kts | 6° |
| 2026-05-06 13:32 | -32.00990 | 152.19872 | 33073 ft | 447 kts | 6° |
| 2026-05-06 13:33 | -31.94980 | 152.21755 | 33068 ft | 448 kts | 6° |
| 2026-05-06 13:33 | -31.88952 | 152.23637 | 33072 ft | 454 kts | 6° |
| 2026-05-06 13:34 | -31.82840 | 152.25546 | 33068 ft | 455 kts | 6° |
| 2026-05-06 13:34 | -31.76712 | 152.27460 | 33036 ft | 456 kts | 7° |
| 2026-05-06 13:35 | -31.70598 | 152.29366 | 33063 ft | 455 kts | 7° |
| 2026-05-06 13:35 | -31.64487 | 152.31266 | 33059 ft | 453 kts | 7° |
| 2026-05-06 13:36 | -31.58409 | 152.33156 | 33070 ft | 452 kts | 7° |
| 2026-05-06 13:36 | -31.52338 | 152.35043 | 33066 ft | 450 kts | 7° |
| 2026-05-06 13:37 | -31.46293 | 152.36996 | 33060 ft | 450 kts | 7° |
| 2026-05-06 13:37 | -31.40247 | 152.38841 | 33072 ft | 448 kts | 6° |
| 2026-05-06 13:38 | -31.34211 | 152.40666 | 33072 ft | 448 kts | 6° |
| 2026-05-06 13:38 | -31.28200 | 152.42506 | 33085 ft | 446 kts | 7° |
| 2026-05-06 13:39 | -31.22193 | 152.44356 | 33065 ft | 447 kts | 7° |
| 2026-05-06 13:39 | -31.16179 | 152.46202 | 33079 ft | 447 kts | 7° |
| 2026-05-06 13:40 | -31.10217 | 152.48311 | 33064 ft | 453 kts | 13° |
| 2026-05-06 13:40 | -31.04329 | 152.50963 | 33062 ft | 454 kts | 13° |
| 2026-05-06 13:41 | -30.98414 | 152.53622 | 33079 ft | 457 kts | 13° |
| 2026-05-06 13:41 | -30.92453 | 152.56275 | 33074 ft | 460 kts | 13° |
| 2026-05-06 13:42 | -30.86466 | 152.58922 | 33067 ft | 461 kts | 13° |
| 2026-05-06 13:42 | -30.80466 | 152.61570 | 33081 ft | 461 kts | 13° |
| 2026-05-06 13:43 | -30.74467 | 152.64211 | 33074 ft | 461 kts | 13° |
| 2026-05-06 13:43 | -30.68480 | 152.66848 | 33090 ft | 460 kts | 13° |
| 2026-05-06 13:44 | -30.62510 | 152.69492 | 33050 ft | 458 kts | 13° |
| 2026-05-06 13:44 | -30.56597 | 152.72088 | 33095 ft | 456 kts | 13° |
| 2026-05-06 13:45 | -30.50665 | 152.74679 | 33092 ft | 455 kts | 13° |
| 2026-05-06 13:45 | -30.41784 | 152.78568 | 33093 ft | 454 kts | 13° |
| 2026-05-06 13:46 | -30.35868 | 152.81151 | 33090 ft | 454 kts | 13° |
| 2026-05-06 13:46 | -30.29951 | 152.83730 | 33096 ft | 454 kts | 13° |
| 2026-05-06 13:47 | -30.24034 | 152.86306 | 33098 ft | 455 kts | 13° |
| 2026-05-06 13:47 | -30.18111 | 152.88885 | 33089 ft | 455 kts | 13° |
| 2026-05-06 13:48 | -30.12184 | 152.91461 | 33103 ft | 455 kts | 12° |
| 2026-05-06 13:48 | -30.06241 | 152.94029 | 33096 ft | 456 kts | 13° |
| 2026-05-06 13:49 | -30.00306 | 152.96614 | 33091 ft | 456 kts | 13° |
| 2026-05-06 13:49 | -29.94371 | 152.99190 | 33067 ft | 456 kts | 13° |
| 2026-05-06 13:50 | -29.88478 | 153.01740 | 33080 ft | 457 kts | 13° |
| 2026-05-06 13:50 | -29.82528 | 153.04309 | 33096 ft | 457 kts | 13° |
| 2026-05-06 13:51 | -29.76568 | 153.06882 | 33076 ft | 457 kts | 12° |
| 2026-05-06 13:51 | -29.70629 | 153.09443 | 33043 ft | 457 kts | 10° |
| 2026-05-06 13:52 | -29.64672 | 153.12003 | 33061 ft | 458 kts | 10° |
| 2026-05-06 13:52 | -29.61651 | 153.13295 | 32483 ft | 466 kts | 11° |
| 2026-05-06 13:52 | -29.58622 | 153.14595 | 31825 ft | 464 kts | 11° |
| 2026-05-06 13:53 | -29.55603 | 153.15895 | 31137 ft | 464 kts | 12° |
| 2026-05-06 13:53 | -29.52577 | 153.17197 | 30411 ft | 464 kts | 12° |
| 2026-05-06 13:53 | -29.49556 | 153.18493 | 29593 ft | 464 kts | 12° |
| 2026-05-06 13:53 | -29.46544 | 153.19785 | 28969 ft | 459 kts | 13° |
| 2026-05-06 13:54 | -29.43575 | 153.21063 | 28399 ft | 453 kts | 13° |
| 2026-05-06 13:54 | -29.40683 | 153.22305 | 27875 ft | 448 kts | 13° |
| 2026-05-06 13:54 | -29.37777 | 153.23550 | 27318 ft | 443 kts | 13° |
| 2026-05-06 13:54 | -29.34905 | 153.24779 | 26788 ft | 439 kts | 13° |
| 2026-05-06 13:55 | -29.32063 | 153.25993 | 26264 ft | 434 kts | 13° |
| 2026-05-06 13:55 | -29.29242 | 153.27196 | 25742 ft | 431 kts | 13° |
| 2026-05-06 13:55 | -29.26442 | 153.28390 | 25217 ft | 427 kts | 13° |
| 2026-05-06 13:55 | -29.23669 | 153.29572 | 24679 ft | 424 kts | 13° |
| 2026-05-06 13:56 | -29.20909 | 153.30747 | 24183 ft | 422 kts | 14° |
| 2026-05-06 13:56 | -29.18166 | 153.31915 | 23636 ft | 420 kts | 14° |
| 2026-05-06 13:56 | -29.15434 | 153.33077 | 23039 ft | 417 kts | 14° |
| 2026-05-06 13:56 | -29.12722 | 153.34232 | 22490 ft | 414 kts | 14° |
| 2026-05-06 13:57 | -29.10034 | 153.35375 | 21961 ft | 410 kts | 14° |
| 2026-05-06 13:57 | -29.07372 | 153.36507 | 21447 ft | 407 kts | 14° |
| 2026-05-06 13:57 | -29.04728 | 153.37630 | 20946 ft | 403 kts | 15° |
| 2026-05-06 13:57 | -29.02109 | 153.38743 | 20443 ft | 400 kts | 15° |
| 2026-05-06 13:58 | -28.99511 | 153.39845 | 19942 ft | 397 kts | 15° |
| 2026-05-06 13:58 | -28.96928 | 153.40940 | 19455 ft | 395 kts | 15° |
| 2026-05-06 13:58 | -28.94362 | 153.42028 | 18961 ft | 393 kts | 15° |
| 2026-05-06 13:58 | -28.91805 | 153.43111 | 18462 ft | 391 kts | 15° |
| 2026-05-06 13:59 | -28.89256 | 153.44190 | 17888 ft | 390 kts | 16° |
| 2026-05-06 13:59 | -28.86728 | 153.45261 | 17384 ft | 386 kts | 16° |
| 2026-05-06 13:59 | -28.84221 | 153.46322 | 16890 ft | 382 kts | 16° |
| 2026-05-06 13:59 | -28.81740 | 153.47395 | 16297 ft | 382 kts | 17° |
| 2026-05-06 14:00 | -28.79280 | 153.48498 | 16021 ft | 375 kts | 17° |
| 2026-05-06 14:00 | -28.76845 | 153.49484 | 15637 ft | 368 kts | 9° |
| 2026-05-06 14:00 | -28.74339 | 153.49839 | 15212 ft | 359 kts | 358° |
| 2026-05-06 14:00 | -28.71896 | 153.49688 | 15082 ft | 344 kts | 350° |
| 2026-05-06 14:01 | -28.69555 | 153.49392 | 14969 ft | 333 kts | 350° |
| 2026-05-06 14:01 | -28.67296 | 153.49114 | 14897 ft | 321 kts | 350° |
| 2026-05-06 14:01 | -28.65114 | 153.48851 | 14825 ft | 310 kts | 350° |
| 2026-05-06 14:01 | -28.63009 | 153.48600 | 14746 ft | 299 kts | 350° |
| 2026-05-06 14:02 | -28.60973 | 153.48359 | 14656 ft | 289 kts | 350° |
| 2026-05-06 14:02 | -28.58992 | 153.48124 | 14484 ft | 284 kts | 350° |
| 2026-05-06 14:02 | -28.57035 | 153.47892 | 14208 ft | 282 kts | 350° |
| 2026-05-06 14:02 | -28.55746 | 153.47740 | 14006 ft | 282 kts | 350° |
| 2026-05-06 14:03 | -28.55085 | 153.47661 | 13906 ft | 282 kts | 350° |
| 2026-05-06 14:04 | -28.44375 | 153.46366 | 10952 ft | 335 kts | 351° |
| 2026-05-06 14:05 | -28.42126 | 153.46332 | 10912 ft | 326 kts | 9° |
| 2026-05-06 14:05 | -28.40118 | 153.47445 | 10911 ft | 323 kts | 39° |
| 2026-05-06 14:05 | -28.38842 | 153.49512 | 10866 ft | 323 kts | 69° |
| 2026-05-06 14:05 | -28.38596 | 153.52060 | 10773 ft | 336 kts | 98° |
| 2026-05-06 14:06 | -28.39110 | 153.54690 | 10675 ft | 343 kts | 103° |
| 2026-05-06 14:06 | -28.39535 | 153.57327 | 10505 ft | 335 kts | 95° |
| 2026-05-06 14:06 | -28.39580 | 153.59941 | 10315 ft | 327 kts | 84° |
| 2026-05-06 14:06 | -28.39207 | 153.62448 | 10162 ft | 318 kts | 74° |
| 2026-05-06 14:07 | -28.38536 | 153.64794 | 10002 ft | 308 kts | 60° |
| 2026-05-06 14:07 | -28.37151 | 153.66486 | 9895 ft | 283 kts | 26° |
| 2026-05-06 14:07 | -28.35315 | 153.67249 | 9278 ft | 282 kts | 11° |
| 2026-05-06 14:07 | -28.33427 | 153.67755 | 8895 ft | 277 kts | 11° |
| 2026-05-06 14:08 | -28.31590 | 153.68310 | 8606 ft | 270 kts | 13° |
| 2026-05-06 14:08 | -28.30499 | 153.68669 | 8355 ft | 269 kts | 14° |
| 2026-05-06 14:09 | -28.30344 | 153.68721 | 8308 ft | 269 kts | 14° |
| 2026-05-06 14:09 | -28.28563 | 153.69181 | 8106 ft | 255 kts | 357° |
| 2026-05-06 14:10 | -28.26863 | 153.68842 | 7886 ft | 245 kts | 339° |
| 2026-05-06 14:10 | -28.25257 | 153.68193 | 7625 ft | 246 kts | 338° |
| 2026-05-06 14:10 | -28.23626 | 153.67522 | 7384 ft | 255 kts | 338° |
| 2026-05-06 14:10 | -28.21938 | 153.66831 | 7128 ft | 267 kts | 338° |
| 2026-05-06 14:11 | -28.20187 | 153.66123 | 6835 ft | 265 kts | 338° |
| 2026-05-06 14:11 | -28.18701 | 153.65526 | 6583 ft | 259 kts | 338° |
| 2026-05-06 14:11 | -28.17021 | 153.64853 | 6294 ft | 253 kts | 338° |
| 2026-05-06 14:11 | -28.15386 | 153.64198 | 6029 ft | 247 kts | 338° |
| 2026-05-06 14:12 | -28.13761 | 153.63546 | 5826 ft | 250 kts | 338° |
| 2026-05-06 14:12 | -28.12098 | 153.62879 | 5617 ft | 258 kts | 339° |
| 2026-05-06 14:12 | -28.10384 | 153.62193 | 5393 ft | 264 kts | 339° |
| 2026-05-06 14:12 | -28.08647 | 153.61497 | 5153 ft | 266 kts | 339° |
| 2026-05-06 14:13 | -28.06908 | 153.60802 | 4905 ft | 264 kts | 339° |
| 2026-05-06 14:13 | -28.05190 | 153.60116 | 4652 ft | 261 kts | 339° |
| 2026-05-06 14:13 | -28.03527 | 153.59335 | 4405 ft | 257 kts | 325° |
| 2026-05-06 14:13 | -28.02373 | 153.57858 | 4179 ft | 251 kts | 294° |
| 2026-05-06 14:14 | -28.01943 | 153.55969 | 3979 ft | 248 kts | 273° |
| 2026-05-06 14:14 | -28.01929 | 153.54032 | 3763 ft | 245 kts | 268° |
| 2026-05-06 14:14 | -28.01982 | 153.52111 | 3536 ft | 243 kts | 268° |
| 2026-05-06 14:14 | -28.02026 | 153.50209 | 3327 ft | 241 kts | 268° |
| 2026-05-06 14:15 | -28.02060 | 153.48321 | 3102 ft | 239 kts | 269° |
| 2026-05-06 14:15 | -28.02087 | 153.46454 | 2891 ft | 236 kts | 269° |
| 2026-05-06 14:15 | -28.02162 | 153.44612 | 2673 ft | 234 kts | 257° |
| 2026-05-06 14:15 | -28.02971 | 153.43109 | 2536 ft | 223 kts | 212° |
| 2026-05-06 14:16 | -28.04416 | 153.42694 | 2514 ft | 216 kts | 168° |
| 2026-05-06 14:16 | -28.05730 | 153.43437 | 2542 ft | 209 kts | 143° |
| 2026-05-06 14:16 | -28.06902 | 153.44324 | 2515 ft | 196 kts | 147° |
| 2026-05-06 14:16 | -28.08065 | 153.45151 | 2049 ft | 204 kts | 147° |
| 2026-05-06 14:17 | -28.09268 | 153.46031 | 1422 ft | 205 kts | 146° |
| 2026-05-06 14:17 | -28.10441 | 153.46845 | 1077 ft | 188 kts | 151° |
| 2026-05-06 14:17 | -28.11500 | 153.47487 | 983 ft | 159 kts | 152° |
| 2026-05-06 14:17 | -28.12430 | 153.48063 | 677 ft | 148 kts | 152° |
| 2026-05-06 14:18 | -28.13320 | 153.48625 | 464 ft | 146 kts | 153° |
| 2026-05-06 14:18 | -28.14219 | 153.49166 | 367 ft | 149 kts | 149° |
| 2026-05-06 14:18 | -28.15124 | 153.49743 | 195 ft | 148 kts | 152° |
| 2026-05-06 14:18 | -28.16017 | 153.50312 | 45 ft | 143 kts | 151° |
| 2026-05-06 14:19 | -28.16793 | 153.50799 | 27 ft | 112 kts | 150° |
| 2026-05-06 14:19 | -28.17319 | 153.51132 | 28 ft | 41 kts | 150° |
| 2026-05-06 14:19 | -28.17457 | 153.51279 | 27 ft | 18 kts | 75° |
| 2026-05-06 14:19 | -28.17384 | 153.51377 | 25 ft | 17 kts | 359° |
| 2026-05-06 14:20 | -28.17276 | 153.51321 | 29 ft | 17 kts | 330° |
| 2026-05-06 14:20 | -28.17176 | 153.51257 | 29 ft | 16 kts | 330° |
| 2026-05-06 14:20 | -28.17082 | 153.51256 | 25 ft | 11 kts | 41° |
| 2026-05-06 14:20 | -28.17009 | 153.51259 | 26 ft | 11 kts | 329° |
| 2026-05-06 14:21 | -28.16942 | 153.51214 | 28 ft | 11 kts | 330° |
| 2026-05-06 14:21 | -28.16878 | 153.51173 | 26 ft | 11 kts | 330° |
| 2026-05-06 14:21 | -28.16814 | 153.51131 | 28 ft | 10 kts | 330° |
| 2026-05-06 14:21 | -28.16755 | 153.51139 | 26 ft | 9 kts | 52° |
| 2026-05-06 14:22 | -28.16734 | 153.51178 | 26 ft | 5 kts | 60° |
| 2026-05-06 14:22 | -28.16725 | 153.51196 | 26 ft | 2 kts | 60° |
| 2026-05-06 14:22 | -28.16722 | 153.51204 | 25 ft | 0 kts | 60° |
| 2026-05-06 14:22 | -28.16721 | 153.51205 | 25 ft | 0 kts | 60° |